sensor_id;sensor_type;location;lat;lon;timestamp;pressure;altitude;pressure_sealevel;temperature;humidity
77975;BME280;67164;51.202;0.278;2023-12-07T00:00:26;101310.53;;;19.69;36.36
77975;BME280;67164;51.202;0.278;2023-12-07T00:02:52;101293.94;;;20.67;36.19
77975;BME280;67164;51.202;0.278;2023-12-07T00:05:18;101284.33;;;20.51;36.36
77975;BME280;67164;51.202;0.278;2023-12-07T00:07:43;101277.83;;;20.28;36.25
77975;BME280;67164;51.202;0.278;2023-12-07T00:10:09;101282.79;;;20.18;36.39
77975;BME280;67164;51.202;0.278;2023-12-07T00:12:34;101292.45;;;20.18;36.31
77975;BME280;67164;51.202;0.278;2023-12-07T00:15:00;101284.91;;;20.01;36.46
77975;BME280;67164;51.202;0.278;2023-12-07T00:17:25;101279.82;;;20.06;36.44
77975;BME280;67164;51.202;0.278;2023-12-07T00:19:51;101283.29;;;19.98;36.44
77975;BME280;67164;51.202;0.278;2023-12-07T00:22:15;101289.05;;;19.88;36.48
77975;BME280;67164;51.202;0.278;2023-12-07T00:24:41;101298.19;;;20.21;36.41
77975;BME280;67164;51.202;0.278;2023-12-07T00:27:06;101305.82;;;20.03;36.27
77975;BME280;67164;51.202;0.278;2023-12-07T00:29:31;101303.02;;;20.03;36.21
77975;BME280;67164;51.202;0.278;2023-12-07T00:31:57;101297.41;;;20.21;35.94
77975;BME280;67164;51.202;0.278;2023-12-07T00:34:23;101288.50;;;20.01;36.13
77975;BME280;67164;51.202;0.278;2023-12-07T00:36:49;101283.10;;;19.97;36.16
77975;BME280;67164;51.202;0.278;2023-12-07T00:39:15;101275.22;;;19.80;36.28
77975;BME280;67164;51.202;0.278;2023-12-07T00:41:40;101265.56;;;19.79;36.28
77975;BME280;67164;51.202;0.278;2023-12-07T00:44:06;101266.78;;;19.54;36.30
77975;BME280;67164;51.202;0.278;2023-12-07T00:46:31;101258.09;;;19.78;36.24
77975;BME280;67164;51.202;0.278;2023-12-07T00:48:57;101260.70;;;19.52;35.95
77975;BME280;67164;51.202;0.278;2023-12-07T00:51:23;101256.44;;;19.82;36.13
77975;BME280;67164;51.202;0.278;2023-12-07T00:53:49;101243.16;;;19.80;36.19
77975;BME280;67164;51.202;0.278;2023-12-07T00:56:14;101235.32;;;19.80;36.19
77975;BME280;67164;51.202;0.278;2023-12-07T00:58:39;101223.33;;;20.29;36.09
77975;BME280;67164;51.202;0.278;2023-12-07T01:01:05;101220.11;;;19.72;36.21
77975;BME280;67164;51.202;0.278;2023-12-07T01:03:31;101227.47;;;19.75;36.14
77975;BME280;67164;51.202;0.278;2023-12-07T01:05:57;101237.45;;;19.16;36.23
77975;BME280;67164;51.202;0.278;2023-12-07T01:08:22;101237.60;;;19.68;36.16
77975;BME280;67164;51.202;0.278;2023-12-07T01:10:48;101236.63;;;19.87;35.88
77975;BME280;67164;51.202;0.278;2023-12-07T01:13:14;101240.55;;;19.69;36.08
77975;BME280;67164;51.202;0.278;2023-12-07T01:15:39;101237.80;;;19.96;36.06
77975;BME280;67164;51.202;0.278;2023-12-07T01:18:05;101232.93;;;19.59;36.04
77975;BME280;67164;51.202;0.278;2023-12-07T01:20:31;101229.08;;;19.78;36.20
77975;BME280;67164;51.202;0.278;2023-12-07T01:22:57;101229.62;;;19.78;36.19
77975;BME280;67164;51.202;0.278;2023-12-07T01:25:23;101231.81;;;19.69;36.17
77975;BME280;67164;51.202;0.278;2023-12-07T01:27:48;101230.26;;;19.96;36.14
77975;BME280;67164;51.202;0.278;2023-12-07T01:30:14;101238.60;;;19.56;36.14
77975;BME280;67164;51.202;0.278;2023-12-07T01:32:39;101233.89;;;19.65;36.19
77975;BME280;67164;51.202;0.278;2023-12-07T01:35:06;101234.80;;;19.32;36.25
77975;BME280;67164;51.202;0.278;2023-12-07T01:37:31;101241.01;;;19.45;36.10
77975;BME280;67164;51.202;0.278;2023-12-07T01:39:56;101243.07;;;19.65;36.08
77975;BME280;67164;51.202;0.278;2023-12-07T01:42:22;101233.27;;;19.81;36.14
77975;BME280;67164;51.202;0.278;2023-12-07T01:44:48;101228.83;;;19.59;36.10
77975;BME280;67164;51.202;0.278;2023-12-07T01:47:14;101228.63;;;19.44;36.23
77975;BME280;67164;51.202;0.278;2023-12-07T01:49:39;101228.63;;;19.73;36.21
77975;BME280;67164;51.202;0.278;2023-12-07T01:52:05;101231.34;;;19.62;35.98
77975;BME280;67164;51.202;0.278;2023-12-07T01:54:30;101229.77;;;19.70;36.15
77975;BME280;67164;51.202;0.278;2023-12-07T01:56:56;101229.67;;;19.03;36.07
77975;BME280;67164;51.202;0.278;2023-12-07T01:59:21;101227.38;;;19.80;36.12
77975;BME280;67164;51.202;0.278;2023-12-07T02:01:47;101220.87;;;19.54;36.01
77975;BME280;67164;51.202;0.278;2023-12-07T02:04:13;101218.02;;;19.50;36.17
77975;BME280;67164;51.202;0.278;2023-12-07T02:06:39;101215.64;;;19.88;36.05
77975;BME280;67164;51.202;0.278;2023-12-07T02:09:04;101210.64;;;19.37;36.07
77975;BME280;67164;51.202;0.278;2023-12-07T02:11:30;101200.19;;;19.56;36.10
77975;BME280;67164;51.202;0.278;2023-12-07T02:13:56;101197.99;;;19.31;36.06
77975;BME280;67164;51.202;0.278;2023-12-07T02:16:25;101193.76;;;19.68;36.05
77975;BME280;67164;51.202;0.278;2023-12-07T02:18:53;101197.51;;;19.50;36.11
77975;BME280;67164;51.202;0.278;2023-12-07T02:21:18;101197.14;;;19.64;36.09
77975;BME280;67164;51.202;0.278;2023-12-07T02:23:40;101189.15;;;19.78;36.14
77975;BME280;67164;51.202;0.278;2023-12-07T02:26:05;101182.80;;;19.94;36.21
77975;BME280;67164;51.202;0.278;2023-12-07T02:28:30;101186.55;;;19.68;36.06
77975;BME280;67164;51.202;0.278;2023-12-07T02:30:56;101190.19;;;19.01;36.22
77975;BME280;67164;51.202;0.278;2023-12-07T02:33:22;101195.17;;;19.70;36.20
77975;BME280;67164;51.202;0.278;2023-12-07T02:35:48;101197.88;;;19.47;36.22
77975;BME280;67164;51.202;0.278;2023-12-07T02:38:13;101183.37;;;19.80;36.14
77975;BME280;67164;51.202;0.278;2023-12-07T02:40:40;101176.00;;;19.77;36.24
77975;BME280;67164;51.202;0.278;2023-12-07T02:43:05;101171.50;;;19.92;36.12
77975;BME280;67164;51.202;0.278;2023-12-07T02:45:31;101165.85;;;19.84;36.05
77975;BME280;67164;51.202;0.278;2023-12-07T02:47:57;101164.41;;;19.04;36.10
77975;BME280;67164;51.202;0.278;2023-12-07T02:50:22;101160.93;;;19.91;36.17
77975;BME280;67164;51.202;0.278;2023-12-07T02:52:48;101157.59;;;19.91;36.09
77975;BME280;67164;51.202;0.278;2023-12-07T02:55:14;101151.47;;;19.72;36.26
77975;BME280;67164;51.202;0.278;2023-12-07T02:57:40;101148.64;;;19.80;36.21
77975;BME280;67164;51.202;0.278;2023-12-07T03:00:07;101143.65;;;19.83;36.26
77975;BME280;67164;51.202;0.278;2023-12-07T03:02:32;101148.72;;;19.95;36.09
77975;BME280;67164;51.202;0.278;2023-12-07T03:04:57;101147.90;;;19.11;36.24
77975;BME280;67164;51.202;0.278;2023-12-07T03:07:23;101143.24;;;19.91;36.04
77975;BME280;67164;51.202;0.278;2023-12-07T03:09:49;101138.20;;;19.93;36.07
77975;BME280;67164;51.202;0.278;2023-12-07T03:12:15;101129.30;;;19.66;36.07
77975;BME280;67164;51.202;0.278;2023-12-07T03:14:41;101129.04;;;20.20;36.09
77975;BME280;67164;51.202;0.278;2023-12-07T03:17:07;101132.34;;;19.96;36.09
77975;BME280;67164;51.202;0.278;2023-12-07T03:19:32;101132.60;;;19.87;36.21
77975;BME280;67164;51.202;0.278;2023-12-07T03:21:58;101132.28;;;20.10;35.91
77975;BME280;67164;51.202;0.278;2023-12-07T03:24:24;101133.97;;;20.01;36.02
77975;BME280;67164;51.202;0.278;2023-12-07T03:26:50;101126.59;;;20.35;35.92
77975;BME280;67164;51.202;0.278;2023-12-07T03:29:16;101123.61;;;20.29;35.71
77975;BME280;67164;51.202;0.278;2023-12-07T03:31:41;101124.45;;;20.43;35.83
77975;BME280;67164;51.202;0.278;2023-12-07T03:34:07;101121.25;;;20.52;35.63
77975;BME280;67164;51.202;0.278;2023-12-07T03:36:33;101127.39;;;20.22;35.97
77975;BME280;67164;51.202;0.278;2023-12-07T03:38:59;101130.02;;;20.26;35.97
77975;BME280;67164;51.202;0.278;2023-12-07T03:41:24;101127.07;;;20.03;36.22
77975;BME280;67164;51.202;0.278;2023-12-07T03:43:51;101120.31;;;20.35;35.76
77975;BME280;67164;51.202;0.278;2023-12-07T03:46:17;101105.25;;;20.14;35.88
77975;BME280;67164;51.202;0.278;2023-12-07T03:48:42;101102.43;;;20.05;36.14
77975;BME280;67164;51.202;0.278;2023-12-07T03:51:08;101086.46;;;20.30;36.04
77975;BME280;67164;51.202;0.278;2023-12-07T03:53:34;101082.64;;;20.08;35.99
77975;BME280;67164;51.202;0.278;2023-12-07T03:55:59;101090.32;;;19.88;36.15
77975;BME280;67164;51.202;0.278;2023-12-07T03:58:25;101101.13;;;20.22;35.66
77975;BME280;67164;51.202;0.278;2023-12-07T04:00:51;101112.95;;;20.59;35.42
77975;BME280;67164;51.202;0.278;2023-12-07T04:03:17;101111.36;;;20.28;35.52
77975;BME280;67164;51.202;0.278;2023-12-07T04:05:42;101120.96;;;20.28;35.46
77975;BME280;67164;51.202;0.278;2023-12-07T04:08:08;101119.68;;;20.10;35.50
77975;BME280;67164;51.202;0.278;2023-12-07T04:10:34;101107.94;;;20.70;35.49
77975;BME280;67164;51.202;0.278;2023-12-07T04:13:00;101103.39;;;20.19;35.66
77975;BME280;67164;51.202;0.278;2023-12-07T04:15:26;101094.15;;;20.34;35.39
77975;BME280;67164;51.202;0.278;2023-12-07T04:17:52;101088.29;;;20.52;35.53
77975;BME280;67164;51.202;0.278;2023-12-07T04:20:17;101089.75;;;20.58;35.47
77975;BME280;67164;51.202;0.278;2023-12-07T04:22:43;101085.60;;;20.28;35.49
77975;BME280;67164;51.202;0.278;2023-12-07T04:25:09;101076.46;;;20.42;35.63
77975;BME280;67164;51.202;0.278;2023-12-07T04:27:35;101070.02;;;20.49;35.67
77975;BME280;67164;51.202;0.278;2023-12-07T04:30:01;101068.28;;;19.74;36.08
77975;BME280;67164;51.202;0.278;2023-12-07T04:32:26;101065.21;;;19.93;35.80
77975;BME280;67164;51.202;0.278;2023-12-07T04:34:53;101067.83;;;20.29;35.69
77975;BME280;67164;51.202;0.278;2023-12-07T04:37:18;101059.81;;;19.97;36.12
77975;BME280;67164;51.202;0.278;2023-12-07T04:39:44;101052.57;;;20.14;35.81
77975;BME280;67164;51.202;0.278;2023-12-07T04:42:09;101053.28;;;20.24;35.54
77975;BME280;67164;51.202;0.278;2023-12-07T04:44:35;101050.64;;;19.93;35.72
77975;BME280;67164;51.202;0.278;2023-12-07T04:47:01;101044.18;;;20.29;35.61
77975;BME280;67164;51.202;0.278;2023-12-07T04:49:27;101043.75;;;20.13;35.70
77975;BME280;67164;51.202;0.278;2023-12-07T04:51:53;101041.88;;;19.86;35.73
77975;BME280;67164;51.202;0.278;2023-12-07T04:54:19;101043.40;;;20.36;35.86
77975;BME280;67164;51.202;0.278;2023-12-07T04:56:45;101036.59;;;19.94;35.78
77975;BME280;67164;51.202;0.278;2023-12-07T04:59:10;101033.91;;;19.64;35.98
77975;BME280;67164;51.202;0.278;2023-12-07T05:01:36;101034.98;;;19.84;36.20
77975;BME280;67164;51.202;0.278;2023-12-07T05:04:02;101043.08;;;20.18;35.90
77975;BME280;67164;51.202;0.278;2023-12-07T05:06:28;101044.77;;;20.25;35.92
77975;BME280;67164;51.202;0.278;2023-12-07T05:08:54;101040.76;;;20.26;35.76
77975;BME280;67164;51.202;0.278;2023-12-07T05:11:20;101037.21;;;19.75;35.88
77975;BME280;67164;51.202;0.278;2023-12-07T05:13:45;101035.12;;;20.00;36.16
77975;BME280;67164;51.202;0.278;2023-12-07T05:16:11;101033.61;;;19.92;35.89
77975;BME280;67164;51.202;0.278;2023-12-07T05:18:37;101030.41;;;20.18;35.92
77975;BME280;67164;51.202;0.278;2023-12-07T05:21:03;101024.83;;;20.17;35.99
77975;BME280;67164;51.202;0.278;2023-12-07T05:23:29;101023.07;;;19.85;36.05
77975;BME280;67164;51.202;0.278;2023-12-07T05:25:55;101016.76;;;19.67;35.88
77975;BME280;67164;51.202;0.278;2023-12-07T05:28:20;101005.44;;;20.04;36.06
77975;BME280;67164;51.202;0.278;2023-12-07T05:30:46;101001.34;;;20.00;36.18
77975;BME280;67164;51.202;0.278;2023-12-07T05:33:12;100999.45;;;19.87;36.13
77975;BME280;67164;51.202;0.278;2023-12-07T05:35:38;100999.11;;;19.76;36.19
77975;BME280;67164;51.202;0.278;2023-12-07T05:38:04;101004.84;;;20.03;36.20
77975;BME280;67164;51.202;0.278;2023-12-07T05:40:29;101006.73;;;19.93;36.17
77975;BME280;67164;51.202;0.278;2023-12-07T05:42:56;101004.18;;;19.29;36.18
77975;BME280;67164;51.202;0.278;2023-12-07T05:45:21;101012.08;;;19.80;36.24
77975;BME280;67164;51.202;0.278;2023-12-07T05:47:47;101013.59;;;19.78;36.44
77975;BME280;67164;51.202;0.278;2023-12-07T05:50:13;101017.46;;;19.52;36.47
77975;BME280;67164;51.202;0.278;2023-12-07T05:52:39;101017.45;;;19.64;36.37
77975;BME280;67164;51.202;0.278;2023-12-07T05:55:05;101011.38;;;19.61;36.37
77975;BME280;67164;51.202;0.278;2023-12-07T05:57:30;101010.22;;;19.91;36.31
77975;BME280;67164;51.202;0.278;2023-12-07T05:59:56;101008.64;;;19.15;36.33
77975;BME280;67164;51.202;0.278;2023-12-07T06:02:22;101009.52;;;19.70;36.33
77975;BME280;67164;51.202;0.278;2023-12-07T06:04:48;101002.63;;;19.89;36.53
77975;BME280;67164;51.202;0.278;2023-12-07T06:07:13;100997.65;;;19.80;36.20
77975;BME280;67164;51.202;0.278;2023-12-07T06:09:40;100992.73;;;19.61;36.51
77975;BME280;67164;51.202;0.278;2023-12-07T06:12:05;100975.02;;;19.75;36.53
77975;BME280;67164;51.202;0.278;2023-12-07T06:14:31;100957.52;;;19.40;36.59
77975;BME280;67164;51.202;0.278;2023-12-07T06:16:57;100946.17;;;19.32;36.30
77975;BME280;67164;51.202;0.278;2023-12-07T06:19:23;100958.40;;;19.96;36.12
77975;BME280;67164;51.202;0.278;2023-12-07T06:21:48;100957.91;;;20.00;36.17
77975;BME280;67164;51.202;0.278;2023-12-07T06:24:14;100959.20;;;20.03;36.10
77975;BME280;67164;51.202;0.278;2023-12-07T06:26:40;100956.62;;;20.03;36.20
77975;BME280;67164;51.202;0.278;2023-12-07T06:29:06;100946.48;;;19.73;36.10
77975;BME280;67164;51.202;0.278;2023-12-07T06:31:32;100939.93;;;19.84;36.11
77975;BME280;67164;51.202;0.278;2023-12-07T06:33:58;100944.27;;;19.75;36.14
77975;BME280;67164;51.202;0.278;2023-12-07T06:36:24;100955.98;;;19.75;36.36
77975;BME280;67164;51.202;0.278;2023-12-07T06:38:49;100957.28;;;19.93;36.07
77975;BME280;67164;51.202;0.278;2023-12-07T06:41:15;100962.57;;;19.94;36.29
77975;BME280;67164;51.202;0.278;2023-12-07T06:43:41;100968.29;;;19.94;36.20
77975;BME280;67164;51.202;0.278;2023-12-07T06:46:07;100975.37;;;19.46;36.47
77975;BME280;67164;51.202;0.278;2023-12-07T06:48:33;100968.35;;;19.66;36.52
77975;BME280;67164;51.202;0.278;2023-12-07T06:50:58;100969.24;;;19.46;36.50
77975;BME280;67164;51.202;0.278;2023-12-07T06:53:24;100967.17;;;19.82;36.45
77975;BME280;67164;51.202;0.278;2023-12-07T06:55:50;100966.70;;;19.94;36.44
77975;BME280;67164;51.202;0.278;2023-12-07T06:58:16;100965.21;;;19.51;36.53
77975;BME280;67164;51.202;0.278;2023-12-07T07:00:41;100960.78;;;19.70;36.46
77975;BME280;67164;51.202;0.278;2023-12-07T07:03:07;100955.66;;;19.63;36.48
77975;BME280;67164;51.202;0.278;2023-12-07T07:05:33;100956.31;;;19.67;36.50
77975;BME280;67164;51.202;0.278;2023-12-07T07:07:59;100956.77;;;19.54;36.33
77975;BME280;67164;51.202;0.278;2023-12-07T07:10:25;100952.69;;;19.52;36.68
77975;BME280;67164;51.202;0.278;2023-12-07T07:12:51;100949.45;;;19.40;36.47
77975;BME280;67164;51.202;0.278;2023-12-07T07:15:16;100947.14;;;19.57;36.55
77975;BME280;67164;51.202;0.278;2023-12-07T07:17:42;100940.19;;;19.65;36.68
77975;BME280;67164;51.202;0.278;2023-12-07T07:20:08;100936.36;;;19.63;36.44
77975;BME280;67164;51.202;0.278;2023-12-07T07:22:34;100936.26;;;20.16;36.39
77975;BME280;67164;51.202;0.278;2023-12-07T07:25:00;100936.97;;;19.69;36.34
77975;BME280;67164;51.202;0.278;2023-12-07T07:27:26;100937.06;;;19.67;36.48
77975;BME280;67164;51.202;0.278;2023-12-07T07:29:52;100938.34;;;19.42;36.61
77975;BME280;67164;51.202;0.278;2023-12-07T07:32:17;100935.42;;;19.35;36.47
77975;BME280;67164;51.202;0.278;2023-12-07T07:34:43;100934.87;;;19.57;36.55
77975;BME280;67164;51.202;0.278;2023-12-07T07:37:09;100933.88;;;19.64;36.53
77975;BME280;67164;51.202;0.278;2023-12-07T07:39:35;100932.73;;;19.49;36.53
77975;BME280;67164;51.202;0.278;2023-12-07T07:42:01;100934.16;;;19.46;36.82
77975;BME280;67164;51.202;0.278;2023-12-07T07:44:27;100932.43;;;19.27;37.06
77975;BME280;67164;51.202;0.278;2023-12-07T07:46:52;100919.30;;;18.83;37.67
77975;BME280;67164;51.202;0.278;2023-12-07T07:49:18;100905.64;;;19.00;37.53
77975;BME280;67164;51.202;0.278;2023-12-07T07:51:44;100908.35;;;19.38;37.38
77975;BME280;67164;51.202;0.278;2023-12-07T07:54:10;100904.34;;;19.06;37.28
77975;BME280;67164;51.202;0.278;2023-12-07T07:56:36;100911.08;;;19.73;37.23
77975;BME280;67164;51.202;0.278;2023-12-07T07:59:02;100903.44;;;19.58;37.18
77975;BME280;67164;51.202;0.278;2023-12-07T08:01:27;100898.03;;;19.42;37.47
77975;BME280;67164;51.202;0.278;2023-12-07T08:03:53;100892.33;;;19.70;38.33
77975;BME280;67164;51.202;0.278;2023-12-07T08:06:19;100891.73;;;19.31;38.62
77975;BME280;67164;51.202;0.278;2023-12-07T08:08:45;100885.83;;;19.64;38.36
77975;BME280;67164;51.202;0.278;2023-12-07T08:11:13;100883.79;;;19.17;38.63
77975;BME280;67164;51.202;0.278;2023-12-07T08:13:36;100887.31;;;19.58;38.74
77975;BME280;67164;51.202;0.278;2023-12-07T08:16:02;100888.58;;;19.32;38.56
77975;BME280;67164;51.202;0.278;2023-12-07T08:18:28;100883.54;;;19.86;38.59
77975;BME280;67164;51.202;0.278;2023-12-07T08:20:54;100884.26;;;19.58;39.09
77975;BME280;67164;51.202;0.278;2023-12-07T08:23:19;100887.60;;;19.71;39.28
77975;BME280;67164;51.202;0.278;2023-12-07T08:25:45;100886.17;;;19.57;39.13
77975;BME280;67164;51.202;0.278;2023-12-07T08:28:11;100879.42;;;19.54;39.21
77975;BME280;67164;51.202;0.278;2023-12-07T08:30:37;100874.22;;;19.65;39.08
77975;BME280;67164;51.202;0.278;2023-12-07T08:33:03;100868.24;;;19.82;38.73
77975;BME280;67164;51.202;0.278;2023-12-07T08:35:28;100868.84;;;19.89;38.61
77975;BME280;67164;51.202;0.278;2023-12-07T08:37:54;100865.46;;;19.65;38.63
77975;BME280;67164;51.202;0.278;2023-12-07T08:40:20;100856.20;;;20.01;38.42
77975;BME280;67164;51.202;0.278;2023-12-07T08:42:47;100846.98;;;20.08;38.20
77975;BME280;67164;51.202;0.278;2023-12-07T08:45:12;100843.22;;;20.16;38.12
77975;BME280;67164;51.202;0.278;2023-12-07T08:47:38;100842.56;;;20.23;37.95
77975;BME280;67164;51.202;0.278;2023-12-07T08:50:04;100843.45;;;20.36;38.07
77975;BME280;67164;51.202;0.278;2023-12-07T08:52:29;100847.09;;;19.76;38.73
77975;BME280;67164;51.202;0.278;2023-12-07T08:54:55;100843.78;;;19.19;38.55
77975;BME280;67164;51.202;0.278;2023-12-07T08:57:21;100838.36;;;20.01;38.11
77975;BME280;67164;51.202;0.278;2023-12-07T08:59:46;100830.95;;;19.88;38.65
77975;BME280;67164;51.202;0.278;2023-12-07T09:02:12;100821.51;;;19.74;38.50
77975;BME280;67164;51.202;0.278;2023-12-07T09:04:38;100816.36;;;20.02;38.47
77975;BME280;67164;51.202;0.278;2023-12-07T09:07:19;100815.14;;;19.75;38.61
77975;BME280;67164;51.202;0.278;2023-12-07T09:09:42;100806.12;;;19.84;38.49
77975;BME280;67164;51.202;0.278;2023-12-07T09:11:56;100801.37;;;19.84;38.53
77975;BME280;67164;51.202;0.278;2023-12-07T09:14:21;100796.81;;;19.48;38.78
77975;BME280;67164;51.202;0.278;2023-12-07T09:16:47;100801.17;;;20.01;38.77
77975;BME280;67164;51.202;0.278;2023-12-07T09:19:13;100792.86;;;19.63;38.67
77975;BME280;67164;51.202;0.278;2023-12-07T09:21:39;100788.32;;;19.84;38.76
77975;BME280;67164;51.202;0.278;2023-12-07T09:24:05;100780.76;;;19.49;38.58
77975;BME280;67164;51.202;0.278;2023-12-07T09:26:30;100774.84;;;20.16;37.97
77975;BME280;67164;51.202;0.278;2023-12-07T09:28:56;100768.43;;;19.84;37.75
77975;BME280;67164;51.202;0.278;2023-12-07T09:31:27;100770.10;;;20.27;37.89
77975;BME280;67164;51.202;0.278;2023-12-07T09:33:47;100762.20;;;20.73;37.56
77975;BME280;67164;51.202;0.278;2023-12-07T09:36:16;100758.49;;;20.19;37.66
77975;BME280;67164;51.202;0.278;2023-12-07T09:38:39;100752.48;;;20.71;37.62
77975;BME280;67164;51.202;0.278;2023-12-07T09:41:05;100741.79;;;19.84;37.83
77975;BME280;67164;51.202;0.278;2023-12-07T09:43:30;100744.49;;;20.08;37.88
77975;BME280;67164;51.202;0.278;2023-12-07T09:45:58;100736.83;;;20.70;37.72
77975;BME280;67164;51.202;0.278;2023-12-07T09:48:24;100735.16;;;20.45;37.72
77975;BME280;67164;51.202;0.278;2023-12-07T09:50:48;100730.29;;;20.46;37.72
77975;BME280;67164;51.202;0.278;2023-12-07T09:53:14;100717.60;;;20.56;37.56
77975;BME280;67164;51.202;0.278;2023-12-07T09:55:40;100717.03;;;20.79;37.56
77975;BME280;67164;51.202;0.278;2023-12-07T09:58:10;100716.37;;;20.36;37.51
77975;BME280;67164;51.202;0.278;2023-12-07T10:00:32;100715.61;;;20.46;37.36
77975;BME280;67164;51.202;0.278;2023-12-07T10:02:57;100714.83;;;20.18;37.39
77975;BME280;67164;51.202;0.278;2023-12-07T10:05:23;100722.72;;;20.43;37.36
77975;BME280;67164;51.202;0.278;2023-12-07T10:07:49;100717.70;;;20.66;37.38
77975;BME280;67164;51.202;0.278;2023-12-07T10:10:16;100716.56;;;20.48;37.28
77975;BME280;67164;51.202;0.278;2023-12-07T10:12:46;100721.01;;;20.26;37.53
77975;BME280;67164;51.202;0.278;2023-12-07T10:15:12;100722.84;;;20.82;37.49
77975;BME280;67164;51.202;0.278;2023-12-07T10:17:44;100730.41;;;20.35;37.49
77975;BME280;67164;51.202;0.278;2023-12-07T10:20:08;100729.32;;;19.94;37.44
77975;BME280;67164;51.202;0.278;2023-12-07T10:22:24;100737.40;;;20.48;37.40
77975;BME280;67164;51.202;0.278;2023-12-07T10:24:50;100720.84;;;20.65;37.48
77975;BME280;67164;51.202;0.278;2023-12-07T10:27:15;100728.58;;;20.26;37.38
77975;BME280;67164;51.202;0.278;2023-12-07T10:29:41;100720.61;;;20.83;37.26
77975;BME280;67164;51.202;0.278;2023-12-07T10:32:07;100714.21;;;21.05;37.28
77975;BME280;67164;51.202;0.278;2023-12-07T10:34:33;100710.98;;;20.58;37.63
77975;BME280;67164;51.202;0.278;2023-12-07T10:36:58;100704.53;;;20.37;37.60
77975;BME280;67164;51.202;0.278;2023-12-07T10:39:25;100692.29;;;20.37;37.66
77975;BME280;67164;51.202;0.278;2023-12-07T10:41:53;100686.47;;;20.56;37.42
77975;BME280;67164;51.202;0.278;2023-12-07T10:44:16;100675.93;;;20.72;37.46
77975;BME280;67164;51.202;0.278;2023-12-07T10:46:43;100662.34;;;20.29;37.98
77975;BME280;67164;51.202;0.278;2023-12-07T10:49:09;100648.80;;;20.68;37.28
77975;BME280;67164;51.202;0.278;2023-12-07T10:51:38;100649.84;;;20.87;37.28
77975;BME280;67164;51.202;0.278;2023-12-07T10:54:01;100637.88;;;19.97;37.55
77975;BME280;67164;51.202;0.278;2023-12-07T10:56:29;100633.51;;;20.51;37.55
77975;BME280;67164;51.202;0.278;2023-12-07T10:58:50;100633.02;;;21.00;37.57
77975;BME280;67164;51.202;0.278;2023-12-07T11:01:17;100627.32;;;20.77;37.46
77975;BME280;67164;51.202;0.278;2023-12-07T11:03:41;100618.23;;;20.64;37.66
77975;BME280;67164;51.202;0.278;2023-12-07T11:06:13;100620.51;;;20.38;37.67
77975;BME280;67164;51.202;0.278;2023-12-07T11:08:36;100631.47;;;20.86;37.44
77975;BME280;67164;51.202;0.278;2023-12-07T11:11:04;100627.60;;;20.79;37.53
77975;BME280;67164;51.202;0.278;2023-12-07T11:13:24;100629.09;;;20.75;37.55
77975;BME280;67164;51.202;0.278;2023-12-07T11:15:47;100623.62;;;20.76;37.45
77975;BME280;67164;51.202;0.278;2023-12-07T11:18:13;100615.47;;;20.75;37.13
77975;BME280;67164;51.202;0.278;2023-12-07T11:20:42;100612.96;;;20.86;37.23
77975;BME280;67164;51.202;0.278;2023-12-07T11:23:04;100596.46;;;20.73;37.05
77975;BME280;67164;51.202;0.278;2023-12-07T11:25:28;100581.61;;;21.32;36.83
77975;BME280;67164;51.202;0.278;2023-12-07T11:28:00;100593.11;;;20.72;36.95
77975;BME280;67164;51.202;0.278;2023-12-07T11:30:19;100578.65;;;20.80;36.79
77975;BME280;67164;51.202;0.278;2023-12-07T11:32:45;100583.72;;;21.09;36.75
77975;BME280;67164;51.202;0.278;2023-12-07T11:35:14;100572.15;;;20.71;36.89
77975;BME280;67164;51.202;0.278;2023-12-07T11:40:02;100581.17;;;21.02;36.71
77975;BME280;67164;51.202;0.278;2023-12-07T11:42:28;100573.26;;;21.13;36.53
77975;BME280;67164;51.202;0.278;2023-12-07T11:44:54;100576.21;;;20.92;36.43
77975;BME280;67164;51.202;0.278;2023-12-07T11:47:20;100561.99;;;21.05;36.56
77975;BME280;67164;51.202;0.278;2023-12-07T11:49:45;100560.07;;;21.14;36.39
77975;BME280;67164;51.202;0.278;2023-12-07T11:52:14;100558.13;;;21.12;36.47
77975;BME280;67164;51.202;0.278;2023-12-07T11:54:36;100548.99;;;21.16;36.39
77975;BME280;67164;51.202;0.278;2023-12-07T11:57:02;100545.79;;;20.85;36.47
77975;BME280;67164;51.202;0.278;2023-12-07T11:59:28;100542.95;;;21.13;36.36
77975;BME280;67164;51.202;0.278;2023-12-07T12:01:54;100535.85;;;20.71;36.37
77975;BME280;67164;51.202;0.278;2023-12-07T12:04:21;100527.18;;;20.97;36.32
77975;BME280;67164;51.202;0.278;2023-12-07T12:06:45;100523.33;;;21.19;36.40
77975;BME280;67164;51.202;0.278;2023-12-07T12:09:12;100520.80;;;21.17;36.43
77975;BME280;67164;51.202;0.278;2023-12-07T12:11:36;100507.08;;;21.18;36.47
77975;BME280;67164;51.202;0.278;2023-12-07T12:14:02;100501.36;;;20.92;36.61
77975;BME280;67164;51.202;0.278;2023-12-07T12:16:28;100498.14;;;21.22;36.73
77975;BME280;67164;51.202;0.278;2023-12-07T12:18:54;100494.67;;;20.66;36.80
77975;BME280;67164;51.202;0.278;2023-12-07T12:21:20;100492.28;;;20.99;37.50
77975;BME280;67164;51.202;0.278;2023-12-07T12:23:47;100489.12;;;20.87;37.75
77975;BME280;67164;51.202;0.278;2023-12-07T12:26:11;100488.15;;;21.08;37.40
77975;BME280;67164;51.202;0.278;2023-12-07T12:28:37;100488.41;;;20.98;37.51
77975;BME280;67164;51.202;0.278;2023-12-07T12:31:03;100487.50;;;20.96;37.55
77975;BME280;67164;51.202;0.278;2023-12-07T12:33:28;100474.47;;;20.99;37.55
77975;BME280;67164;51.202;0.278;2023-12-07T12:36:06;100468.65;;;20.53;37.55
77975;BME280;67164;51.202;0.278;2023-12-07T12:38:25;100462.72;;;20.86;37.45
77975;BME280;67164;51.202;0.278;2023-12-07T12:40:46;100454.34;;;20.89;37.41
77975;BME280;67164;51.202;0.278;2023-12-07T12:43:12;100450.90;;;21.13;37.40